createdAt,value
2023-04-12T00:04:46.606Z,2.70
2023-04-12T00:17:46.486Z,2.40
2023-04-12T00:30:46.506Z,2.30
2023-04-12T00:43:46.508Z,2.20
2023-04-12T00:56:46.521Z,2.20
2023-04-12T01:09:46.544Z,2.10
2023-04-12T01:22:46.521Z,2.30
2023-04-12T01:35:46.528Z,2.10
2023-04-12T01:48:46.520Z,2.20
2023-04-12T02:01:46.584Z,2.10
2023-04-12T02:14:46.597Z,2.10
2023-04-12T02:27:46.571Z,2.00
2023-04-12T02:40:46.648Z,1.80
2023-04-12T02:53:46.572Z,2.00
2023-04-12T03:06:46.594Z,1.80
2023-04-12T03:19:46.598Z,2.10
2023-04-12T03:32:46.615Z,1.90
2023-04-12T03:45:46.634Z,2.10
2023-04-12T03:58:46.627Z,2.10
2023-04-12T04:11:46.650Z,2.00
2023-04-12T04:24:46.647Z,1.90
2023-04-12T04:38:46.662Z,1.80
2023-04-12T04:52:46.666Z,1.80
2023-04-12T05:06:46.687Z,2.10
2023-04-12T05:20:46.690Z,1.80
2023-04-12T05:34:46.731Z,1.90
2023-04-12T05:48:46.720Z,1.90
2023-04-12T06:02:46.792Z,1.90
2023-04-12T06:16:46.726Z,2.30
2023-04-12T06:30:46.703Z,2.20
2023-04-12T06:44:58.469Z,2.20
2023-04-12T06:58:46.754Z,2.40
2023-04-12T07:12:46.748Z,2.10
2023-04-12T07:26:46.761Z,2.30
2023-04-12T07:40:49.881Z,2.40
2023-04-12T07:54:46.784Z,2.30
2023-04-12T08:08:46.781Z,2.40
2023-04-12T08:22:46.788Z,5.75
2023-04-12T08:36:46.781Z,4.60
2023-04-12T08:50:47.622Z,3.70
2023-04-12T09:04:46.922Z,3.40
2023-04-12T09:18:47.085Z,3.10
2023-04-12T09:32:46.892Z,3.05
2023-04-12T09:46:48.221Z,2.60
2023-04-12T10:00:46.871Z,2.75
2023-04-12T10:14:46.947Z,2.25
2023-04-12T10:28:46.920Z,2.55
2023-04-12T10:42:46.952Z,2.50
2023-04-12T10:56:46.936Z,4.55
2023-04-12T11:10:47.005Z,16.70
2023-04-12T11:24:46.926Z,20.50
2023-04-12T11:38:47.272Z,20.50
2023-04-12T11:52:46.958Z,22.90
2023-04-12T12:06:47.094Z,19.65
2023-04-12T12:20:46.953Z,16.90
2023-04-12T12:34:47.000Z,15.00
2023-04-12T12:48:47.016Z,13.70
2023-04-12T13:02:47.101Z,12.00
2023-04-12T13:16:47.079Z,11.60
2023-04-12T13:30:47.043Z,10.50
2023-04-12T13:44:47.045Z,9.70
2023-04-12T13:58:47.094Z,10.10
2023-04-12T14:10:47.277Z,9.60
2023-04-12T14:24:47.232Z,8.80
2023-04-12T14:38:47.267Z,9.10
2023-04-12T14:52:47.168Z,8.10
2023-04-12T15:06:47.156Z,8.00
2023-04-12T15:20:47.170Z,7.70
2023-04-12T15:34:47.153Z,7.05
2023-04-12T15:48:47.183Z,7.00
2023-04-12T16:02:47.422Z,6.80
2023-04-12T16:16:47.309Z,6.20
2023-04-12T16:30:47.209Z,5.90
2023-04-12T16:44:47.229Z,5.75
2023-04-12T16:58:47.456Z,5.60
2023-04-12T17:12:47.289Z,5.60
2023-04-12T17:26:47.312Z,5.25
2023-04-12T17:41:47.302Z,11.40
2023-04-12T17:55:48.873Z,10.70
2023-04-12T18:09:47.324Z,10.65
2023-04-12T18:21:47.362Z,10.60
2023-04-12T18:34:47.375Z,9.90
2023-04-12T18:47:47.341Z,9.00
2023-04-12T19:00:47.438Z,8.60
2023-04-12T19:13:48.045Z,8.30
2023-04-12T19:26:47.808Z,7.65
2023-04-12T19:39:47.670Z,7.70
2023-04-12T19:52:47.436Z,7.30
2023-04-12T20:05:49.780Z,7.20
2023-04-12T20:18:47.972Z,6.90
2023-04-12T20:31:47.805Z,7.20
2023-04-12T20:44:47.904Z,6.70
2023-04-12T20:57:47.989Z,6.40
2023-04-12T21:10:47.505Z,6.50
2023-04-12T21:23:47.473Z,6.60
2023-04-12T21:36:47.478Z,6.40
2023-04-12T21:49:47.482Z,6.30
2023-04-12T22:02:47.576Z,6.20
2023-04-12T22:15:47.469Z,6.30
2023-04-12T22:28:47.530Z,6.20
2023-04-12T22:41:47.535Z,5.45
2023-04-12T22:54:47.561Z,5.40
2023-04-12T23:04:47.569Z,5.70
2023-04-12T23:17:47.559Z,5.25
2023-04-12T23:30:47.543Z,5.00
2023-04-12T23:43:47.565Z,4.90
2023-04-12T23:56:47.571Z,4.80
